createdAt,value
2023-04-16T00:04:43.374Z,9.07
2023-04-16T00:09:46.473Z,9.08
2023-04-16T00:14:50.389Z,9.00
2023-04-16T00:19:53.010Z,8.97
2023-04-16T00:24:55.538Z,8.96
2023-04-16T00:29:59.412Z,8.94
2023-04-16T00:35:01.885Z,8.95
2023-04-16T00:40:05.321Z,8.96
2023-04-16T00:45:11.097Z,8.90
2023-04-16T00:50:13.858Z,8.90
2023-04-16T00:55:18.553Z,8.85
2023-04-16T01:00:22.903Z,8.91
2023-04-16T01:05:25.420Z,8.92
2023-04-16T01:10:27.916Z,8.90
2023-04-16T01:15:32.124Z,8.88
2023-04-16T01:20:37.438Z,8.91
2023-04-16T01:25:40.093Z,8.97
2023-04-16T01:30:42.720Z,8.94
2023-04-16T01:35:46.563Z,8.96
2023-04-16T01:40:49.037Z,8.95
2023-04-16T01:45:51.526Z,8.90
2023-04-16T01:50:55.507Z,8.88
2023-04-16T01:55:58.002Z,8.83
2023-04-16T02:01:00.744Z,8.78
2023-04-16T02:06:04.905Z,8.80
2023-04-16T02:11:07.578Z,8.83
2023-04-16T02:16:10.273Z,8.83
2023-04-16T02:21:14.144Z,8.83
2023-04-16T02:26:17.066Z,8.78
2023-04-16T02:31:19.708Z,8.77
2023-04-16T02:36:23.992Z,8.82
2023-04-16T02:41:26.502Z,8.79
2023-04-16T02:46:29.071Z,8.78
2023-04-16T02:51:33.217Z,8.74
2023-04-16T02:56:35.871Z,8.68
2023-04-16T03:01:38.397Z,8.74
2023-04-16T03:06:42.296Z,8.74
2023-04-16T03:11:44.792Z,8.72
2023-04-16T03:16:47.294Z,8.69
2023-04-16T03:21:51.101Z,8.72
2023-04-16T03:26:53.592Z,8.66
2023-04-16T03:31:56.087Z,8.62
2023-04-16T03:37:00.194Z,8.61
2023-04-16T03:42:03.404Z,8.66
2023-04-16T03:47:06.133Z,8.63
2023-04-16T03:52:11.166Z,8.62
2023-04-16T03:57:13.656Z,8.62
2023-04-16T04:02:16.234Z,8.64
2023-04-16T04:07:20.163Z,8.64
2023-04-16T04:12:22.704Z,8.61
2023-04-16T04:17:25.267Z,8.62
2023-04-16T04:22:29.138Z,8.64
2023-04-16T04:27:31.638Z,8.66
2023-04-16T04:32:34.248Z,8.63
2023-04-16T04:37:38.194Z,8.61
2023-04-16T04:42:40.927Z,8.59
2023-04-16T04:47:43.559Z,8.62
2023-04-16T04:52:47.423Z,8.65
2023-04-16T04:57:49.964Z,8.67
2023-04-16T05:02:52.578Z,8.65
2023-04-16T05:07:56.531Z,8.67
2023-04-16T05:12:59.020Z,8.68
2023-04-16T05:18:01.586Z,8.71
2023-04-16T05:23:05.461Z,8.73
2023-04-16T05:28:08.183Z,8.78
2023-04-16T05:33:10.690Z,8.79
2023-04-16T05:38:14.514Z,8.77
2023-04-16T05:43:17.174Z,8.73
2023-04-16T05:48:20.035Z,8.78
2023-04-16T05:53:23.887Z,8.92
2023-04-16T05:58:26.357Z,8.96
2023-04-16T06:03:28.995Z,8.97
2023-04-16T06:08:32.869Z,9.05
2023-04-16T06:13:35.391Z,9.14
2023-04-16T06:18:37.908Z,9.20
2023-04-16T06:23:41.710Z,9.29
2023-04-16T06:28:44.195Z,9.30
2023-04-16T06:33:46.714Z,9.39
2023-04-16T06:38:50.645Z,9.53
2023-04-16T06:43:53.357Z,9.64
2023-04-16T06:48:55.929Z,9.76
2023-04-16T06:53:59.822Z,9.91
2023-04-16T06:59:02.369Z,10.08
2023-04-16T07:04:05.242Z,10.16
2023-04-16T07:09:09.474Z,10.26
2023-04-16T07:14:12.395Z,10.29
2023-04-16T07:19:14.948Z,10.25
2023-04-16T07:24:18.782Z,10.30
2023-04-16T07:29:21.477Z,10.37
2023-04-16T07:34:24.370Z,10.45
2023-04-16T07:39:28.225Z,10.52
2023-04-16T07:44:30.749Z,10.60
2023-04-16T07:49:33.434Z,10.70
2023-04-16T07:54:37.298Z,10.84
2023-04-16T07:59:39.811Z,10.87
2023-04-16T08:04:42.705Z,10.97
2023-04-16T08:09:51.657Z,11.10
2023-04-16T08:14:54.225Z,11.19
2023-04-16T08:19:56.748Z,11.18
2023-04-16T08:25:00.609Z,11.23
2023-04-16T08:30:03.219Z,11.28
2023-04-16T08:35:06.453Z,11.30
2023-04-16T08:40:11.066Z,11.43
2023-04-16T08:45:16.478Z,11.52
2023-04-16T08:50:24.620Z,11.63
2023-04-16T08:55:36.906Z,11.67
2023-04-16T09:00:40.973Z,11.73
2023-04-16T09:05:44.824Z,11.82
2023-04-16T09:10:49.992Z,11.84
2023-04-16T09:15:54.146Z,11.91
2023-04-16T09:20:57.512Z,12.03
2023-04-16T09:26:01.418Z,12.01
2023-04-16T09:31:09.965Z,12.07
2023-04-16T09:36:12.516Z,12.22
2023-04-16T09:41:17.648Z,12.47
2023-04-16T09:46:20.601Z,12.53
2023-04-16T09:51:23.167Z,12.73
2023-04-16T09:56:27.182Z,12.81
2023-04-16T10:01:31.960Z,12.85
2023-04-16T10:06:35.540Z,12.72
2023-04-16T10:11:40.561Z,12.75
2023-04-16T10:16:43.972Z,12.85
2023-04-16T10:21:46.924Z,12.89
2023-04-16T10:26:52.685Z,13.00
2023-04-16T10:31:56.830Z,13.03
2023-04-16T10:36:59.402Z,13.10
2023-04-16T10:42:10.596Z,13.21
2023-04-16T10:47:14.419Z,13.18
2023-04-16T10:52:17.914Z,13.36
2023-04-16T10:57:21.864Z,13.68
2023-04-16T11:02:29.857Z,13.62
2023-04-16T11:07:34.437Z,13.64
2023-04-16T11:12:39.712Z,13.67
2023-04-16T11:17:44.049Z,13.70
2023-04-16T11:22:46.993Z,13.66
2023-04-16T11:27:51.165Z,13.56
2023-04-16T11:32:53.706Z,13.52
2023-04-16T11:37:57.957Z,13.44
2023-04-16T11:43:04.995Z,13.59
2023-04-16T11:48:10.598Z,13.55
2023-04-16T11:53:13.595Z,13.53
2023-04-16T11:58:17.465Z,13.58
2023-04-16T12:03:20.366Z,13.50
2023-04-16T12:08:31.071Z,13.42
2023-04-16T12:13:40.085Z,13.49
2023-04-16T12:18:59.920Z,13.49
2023-04-16T12:24:02.456Z,13.47
2023-04-16T12:29:17.659Z,13.33
2023-04-16T12:34:21.320Z,13.37
2023-04-16T12:39:23.937Z,13.41
2023-04-16T12:44:29.425Z,13.52
2023-04-16T12:49:32.012Z,13.52
2023-04-16T12:54:34.571Z,13.61
2023-04-16T12:59:38.390Z,13.94
2023-04-16T13:04:41.058Z,14.15
2023-04-16T13:09:43.729Z,14.17
2023-04-16T13:14:47.570Z,14.11
2023-04-16T13:19:50.067Z,13.92
2023-04-16T13:24:52.578Z,13.74
2023-04-16T13:29:56.568Z,13.63
2023-04-16T13:34:59.384Z,13.50
2023-04-16T13:40:01.926Z,13.47
2023-04-16T13:45:06.811Z,13.45
2023-04-16T13:50:09.903Z,13.56
2023-04-16T13:55:13.930Z,13.66
2023-04-16T14:00:19.571Z,13.66
2023-04-16T14:05:24.577Z,13.58
2023-04-16T14:10:28.438Z,13.57
2023-04-16T14:15:32.350Z,13.65
2023-04-16T14:20:34.851Z,13.59
2023-04-16T14:25:37.359Z,13.62
2023-04-16T14:30:41.218Z,13.43
2023-04-16T14:35:43.736Z,13.35
2023-04-16T14:40:46.297Z,13.33
2023-04-16T14:45:50.716Z,13.37
2023-04-16T14:50:54.671Z,13.39
2023-04-16T14:55:58.887Z,13.40
2023-04-16T15:01:03.908Z,13.44
2023-04-16T15:06:06.686Z,13.48
2023-04-16T15:11:09.201Z,13.45
2023-04-16T15:16:13.106Z,13.37
2023-04-16T15:21:15.844Z,13.38
2023-04-16T15:26:18.510Z,13.34
2023-04-16T15:31:22.653Z,13.26
2023-04-16T15:36:26.575Z,13.27
2023-04-16T15:41:30.378Z,13.30
2023-04-16T15:46:34.281Z,13.37
2023-04-16T15:51:37.187Z,13.52
2023-04-16T15:56:39.833Z,13.57
2023-04-16T16:01:43.776Z,13.60
2023-04-16T16:06:46.584Z,13.52
2023-04-16T16:11:49.072Z,13.41
2023-04-16T16:16:52.969Z,13.21
2023-04-16T16:21:55.874Z,13.07
2023-04-16T16:26:58.508Z,13.12
2023-04-16T16:32:02.436Z,13.08
2023-04-16T16:37:05.119Z,13.02
2023-04-16T16:42:09.014Z,12.84
2023-04-16T16:47:13.179Z,12.56
2023-04-16T16:52:15.978Z,12.33
2023-04-16T16:57:20.073Z,12.20
2023-04-16T17:02:24.054Z,12.09
2023-04-16T17:07:27.347Z,12.01
2023-04-16T17:12:29.894Z,11.93
2023-04-16T17:17:33.782Z,11.82
2023-04-16T17:22:36.597Z,11.71
2023-04-16T17:27:42.486Z,11.61
2023-04-16T17:32:46.395Z,11.56
2023-04-16T17:37:48.918Z,11.52
2023-04-16T17:42:51.503Z,11.46
2023-04-16T17:47:55.461Z,11.37
2023-04-16T17:53:03.400Z,11.29
2023-04-16T17:58:06.171Z,11.24
2023-04-16T18:03:11.490Z,11.19
2023-04-16T18:08:14.211Z,11.11
2023-04-16T18:13:16.716Z,11.03
2023-04-16T18:18:21.318Z,10.98
2023-04-16T18:23:23.930Z,10.90
2023-04-16T18:28:27.654Z,10.85
2023-04-16T18:33:48.824Z,10.80
2023-04-16T18:39:01.628Z,10.76
2023-04-16T18:44:05.201Z,10.69
2023-04-16T18:49:09.377Z,10.63
2023-04-16T18:54:12.230Z,10.60
2023-04-16T18:59:14.861Z,10.50
2023-04-16T19:04:18.945Z,10.45
2023-04-16T19:09:21.608Z,10.42
2023-04-16T19:14:24.207Z,10.42
2023-04-16T19:19:30.033Z,10.35
2023-04-16T19:24:34.232Z,10.31
2023-04-16T19:29:37.212Z,10.33
2023-04-16T19:34:41.056Z,10.34
2023-04-16T19:39:43.660Z,10.31
2023-04-16T19:44:46.625Z,10.25
2023-04-16T19:49:50.499Z,10.20
2023-04-16T19:54:53.060Z,10.13
2023-04-16T19:59:55.696Z,10.09
2023-04-16T20:05:01.794Z,10.06
2023-04-16T20:10:04.660Z,9.93
2023-04-16T20:15:08.690Z,9.82
2023-04-16T20:20:15.689Z,9.68
2023-04-16T20:25:19.670Z,9.59
2023-04-16T20:30:24.416Z,9.48
2023-04-16T20:35:28.266Z,9.44
2023-04-16T20:40:31.130Z,9.41
2023-04-16T20:45:38.115Z,9.33
2023-04-16T20:50:41.995Z,9.24
2023-04-16T20:55:44.604Z,9.17
2023-04-16T21:00:50.064Z,9.16
2023-04-16T21:05:55.798Z,9.11
2023-04-16T21:10:58.338Z,9.06
2023-04-16T21:16:00.863Z,9.06
2023-04-16T21:21:05.041Z,9.00
2023-04-16T21:26:07.557Z,8.92
2023-04-16T21:31:10.179Z,8.86
2023-04-16T21:36:14.066Z,8.84
2023-04-16T21:41:16.626Z,8.79
2023-04-16T21:46:19.160Z,8.74
2023-04-16T21:51:28.827Z,8.71
2023-04-16T21:56:31.365Z,8.60
2023-04-16T22:01:33.938Z,8.52
2023-04-16T22:06:37.808Z,8.49
2023-04-16T22:11:40.669Z,8.44
2023-04-16T22:16:44.753Z,8.40
2023-04-16T22:21:49.253Z,8.38
2023-04-16T22:26:51.758Z,8.39
2023-04-16T22:31:54.976Z,8.31
2023-04-16T22:36:58.850Z,8.29
2023-04-16T22:42:01.835Z,8.27
2023-04-16T22:47:04.427Z,8.31
2023-04-16T22:52:08.231Z,8.31
2023-04-16T22:57:10.766Z,8.39
2023-04-16T23:02:13.301Z,8.44
2023-04-16T23:07:17.435Z,8.49
2023-04-16T23:12:19.917Z,8.52
2023-04-16T23:17:22.398Z,8.52
2023-04-16T23:22:26.201Z,8.45
2023-04-16T23:27:28.677Z,8.39
2023-04-16T23:32:31.275Z,8.39
2023-04-16T23:37:35.218Z,8.34
2023-04-16T23:42:37.705Z,8.31
2023-04-16T23:47:40.277Z,8.29
2023-04-16T23:52:44.135Z,8.27
2023-04-16T23:57:46.643Z,8.24
